Time;durP1;ratioP1;P1;durP2;ratioP2;P2;SDS_P1;SDS_P2;PMS_P1;PMS_P2;Temp;Humidity;BMP_temperature;BMP_pressure;BME280_temperature;BME280_humidity;BME280_pressure;Samples;Min_cycle;Max_cycle;Signal;HPM_P1;HPM_P2
2022/04/08 00:23:52;;;;;;;2.70;0.53;;;;;;;7.68;61.44;97905.19;8219900;28;20047;-73
2022/04/08 00:27:54;;;;;;;1.45;0.50;;;;;;;7.61;61.70;97916.50;8222075;28;20124;-73
2022/04/08 00:31:57;;;;;;;3.53;0.60;;;;;;;7.55;61.47;97929.53;8219369;28;20057;-72
2022/04/08 00:36:00;;;;;;;2.87;0.50;;;;;;;7.54;62.51;97918.34;8206088;28;20065;-72
2022/04/08 00:40:04;;;;;;;4.10;0.65;;;;;;;7.46;62.33;97932.25;8216898;28;20074;-72
2022/04/08 00:44:05;;;;;;;2.50;0.50;;;;;;;7.44;63.07;97939.16;8218400;28;20077;-74
2022/04/08 00:48:08;;;;;;;2.53;0.68;;;;;;;7.34;63.64;97928.13;8212175;28;20062;-72
2022/04/08 00:52:10;;;;;;;3.05;0.60;;;;;;;7.34;63.56;97942.75;8206280;28;20053;-74
2022/04/08 00:56:12;;;;;;;3.85;0.55;;;;;;;7.31;64.25;97946.25;8200370;28;20073;-71
2022/04/08 01:00:13;;;;;;;8.33;0.63;;;;;;;7.28;64.26;97951.44;8216963;28;20466;-72
2022/04/08 01:04:15;;;;;;;4.13;0.60;;;;;;;7.24;65.23;97954.97;8185568;28;20301;-72
2022/04/08 01:08:17;;;;;;;3.83;0.50;;;;;;;7.16;65.04;97955.06;8182778;29;20464;-73
2022/04/08 01:12:19;;;;;;;2.78;0.45;;;;;;;7.12;66.15;97960.28;8185881;29;20504;-72
2022/04/08 01:16:21;;;;;;;3.00;1.80;;;;;;;7.06;66.56;97968.13;8183055;28;20051;-72
2022/04/08 01:20:24;;;;;;;2.83;0.63;;;;;;;7.04;66.79;97983.63;8183515;29;20630;-72
2022/04/08 01:24:26;;;;;;;;;;;;;;;7.01;67.26;97975.94;8170209;29;20504;-72
2022/04/08 01:28:28;;;;;;;1.25;0.43;;;;;;;6.94;67.94;97971.69;8183303;28;19926;-72
2022/04/08 01:32:29;;;;;;;3.10;1.23;;;;;;;6.91;68.55;97976.91;8184721;29;20047;-73
2022/04/08 01:36:31;;;;;;;5.13;0.40;;;;;;;6.91;68.47;97979.50;8179897;29;20286;-72
2022/04/08 01:40:33;;;;;;;2.40;0.70;;;;;;;6.87;68.79;97976.09;8181834;29;20058;-74
2022/04/08 01:44:35;;;;;;;5.00;0.70;;;;;;;6.83;69.19;97989.06;8180632;29;20047;-74
2022/04/08 01:48:37;;;;;;;7.55;1.67;;;;;;;6.81;69.27;97995.94;8184675;29;20166;-74
2022/04/08 01:52:38;;;;;;;1.30;0.40;;;;;;;6.78;69.52;97990.81;8180231;29;20048;-74
2022/04/08 01:56:40;;;;;;;3.45;0.43;;;;;;;6.72;69.73;97999.50;8180366;29;20122;-73
2022/04/08 02:00:42;;;;;;;2.30;0.53;;;;;;;6.65;69.97;97998.72;8177343;28;20134;-74
2022/04/08 02:04:44;;;;;;;5.20;0.60;;;;;;;6.63;69.94;98010.75;8186738;29;20054;-74
2022/04/08 02:08:45;;;;;;;6.73;0.70;;;;;;;6.54;70.25;98004.84;8187387;29;20459;-74
2022/04/08 02:12:47;;;;;;;1.40;0.60;;;;;;;6.48;70.29;98003.22;8170960;29;20805;-74
2022/04/08 02:16:49;;;;;;;3.90;0.60;;;;;;;6.46;70.54;98006.66;8170706;29;20167;-71
2022/04/08 02:20:51;;;;;;;2.50;0.50;;;;;;;6.41;70.67;98011.00;8169999;29;20039;-74
2022/04/08 02:24:52;;;;;;;1.33;0.45;;;;;;;6.35;71.20;98011.94;8188339;29;20043;-74
2022/04/08 02:28:54;;;;;;;5.67;0.80;;;;;;;6.30;71.11;98017.13;8185215;29;20048;-72
2022/04/08 02:32:57;;;;;;;6.57;0.77;;;;;;;6.29;71.17;98012.84;8169202;29;20059;-72
2022/04/08 02:36:59;;;;;;;2.47;0.83;;;;;;;6.27;71.53;98011.97;8179746;29;20122;-72
2022/04/08 02:41:00;;;;;;;5.73;1.07;;;;;;;6.28;71.35;98018.88;8165219;29;20146;-72
2022/04/08 02:45:02;;;;;;;3.67;0.70;;;;;;;6.24;71.78;98013.75;8182734;28;20063;-72
2022/04/08 02:49:04;;;;;;;2.97;0.73;;;;;;;6.23;71.81;98017.19;8184571;29;20086;-74
2022/04/08 02:53:05;;;;;;;2.10;0.50;;;;;;;6.20;71.90;98018.06;8188634;29;20050;-74
2022/04/08 02:57:07;;;;;;;3.10;0.50;;;;;;;6.17;71.78;98012.09;8171273;29;20583;-72
2022/04/08 03:01:10;;;;;;;2.90;0.50;;;;;;;6.14;72.79;98019.88;8182335;29;20142;-73
2022/04/08 03:05:12;;;;;;;3.30;0.67;;;;;;;6.13;72.70;98018.16;8179040;29;20453;-72
2022/04/08 03:09:13;;;;;;;2.03;0.70;;;;;;;6.10;72.65;98019.00;8185075;29;20053;-72
2022/04/08 03:13:15;;;;;;;6.03;0.90;;;;;;;6.09;73.11;98014.72;8161762;29;20150;-72
2022/04/08 03:17:17;;;;;;;1.40;0.40;;;;;;;6.11;72.68;98019.91;8177191;29;20701;-72
2022/04/08 03:21:18;;;;;;;3.80;0.33;;;;;;;6.12;72.25;98019.03;8164996;29;20148;-74
2022/04/08 03:25:20;;;;;;;4.40;0.60;;;;;;;6.10;72.65;98007.84;8176249;29;20043;-74
2022/04/08 03:29:21;;;;;;;2.93;0.60;;;;;;;6.04;73.27;98014.78;8181413;29;20126;-74
2022/04/08 03:33:23;;;;;;;5.57;0.70;;;;;;;6.02;73.63;98011.38;8177781;29;20047;-74
2022/04/08 03:37:27;;;;;;;7.40;1.50;;;;;;;5.95;74.24;98006.28;8183089;28;20047;-74
2022/04/08 03:41:29;;;;;;;7.17;0.60;;;;;;;5.93;74.13;98003.72;8189179;29;20375;-72
2022/04/08 03:45:30;;;;;;;4.17;1.03;;;;;;;5.91;74.16;97995.13;8181057;29;20077;-74
2022/04/08 03:49:35;;;;;;;4.10;0.57;;;;;;;5.92;74.11;97999.41;8187916;29;20484;-74
2022/04/08 03:53:37;;;;;;;6.40;0.80;;;;;;;5.94;74.00;97995.13;8175391;29;20066;-74
2022/04/08 03:57:39;;;;;;;1.77;0.63;;;;;;;5.95;74.19;97995.97;8171181;29;20585;-74
2022/04/08 04:01:40;;;;;;;3.37;0.60;;;;;;;5.91;74.54;97989.97;8185617;28;20051;-72
2022/04/08 04:05:43;;;;;;;3.30;0.50;;;;;;;5.94;74.71;97986.56;8180676;29;20035;-72
2022/04/08 04:09:46;;;;;;;5.10;0.50;;;;;;;5.94;74.89;97984.81;8170025;29;20047;-72
2022/04/08 04:13:48;;;;;;;4.37;0.47;;;;;;;5.92;75.32;97988.25;8169656;29;20054;-74
2022/04/08 04:17:49;;;;;;;6.43;0.97;;;;;;;5.90;74.88;98001.16;8156629;29;20052;-74
2022/04/08 04:21:51;;;;;;;2.70;0.50;;;;;;;5.90;75.27;97998.56;8180277;29;20519;-72
2022/04/08 04:25:53;;;;;;;3.55;0.65;;;;;;;5.95;75.32;98004.56;8184067;28;20044;-73
2022/04/08 04:29:54;;;;;;;3.80;0.40;;;;;;;6.01;74.91;97998.50;8195892;28;20053;-73
2022/04/08 04:33:56;;;;;;;2.77;0.40;;;;;;;6.06;74.96;98012.19;8190143;28;20150;-72
2022/04/08 04:37:57;;;;;;;4.90;0.70;;;;;;;6.10;74.79;98007.84;8208005;28;20073;-73
2022/04/08 04:41:59;;;;;;;3.37;0.50;;;;;;;6.13;74.52;98003.56;8206945;28;20053;-74
2022/04/08 04:46:00;;;;;;;2.33;0.40;;;;;;;6.18;74.71;98013.81;8204882;28;20051;-74
2022/04/08 04:50:02;;;;;;;7.20;1.37;;;;;;;6.21;74.23;98001.75;8190823;28;20507;-74
2022/04/08 04:54:03;;;;;;;1.53;0.50;;;;;;;6.25;74.58;98002.56;8183766;28;20114;-73
2022/04/08 04:58:05;;;;;;;2.97;0.60;;;;;;;6.26;74.59;98002.53;8199745;28;20051;-73
2022/04/08 05:02:07;;;;;;;4.17;0.53;;;;;;;6.31;74.76;98000.81;8181807;28;20058;-73
2022/04/08 05:06:08;;;;;;;3.83;0.63;;;;;;;6.33;74.55;97991.31;8194737;28;20504;-72
2022/04/08 05:10:10;;;;;;;3.00;0.70;;;;;;;6.34;74.26;97985.28;8200398;28;20090;-73
2022/04/08 05:14:11;;;;;;;3.00;0.50;;;;;;;6.36;73.71;97978.41;8220870;28;20046;-73
2022/04/08 05:18:13;;;;;;;2.87;0.90;;;;;;;6.42;74.33;97976.63;8219899;28;20065;-73
2022/04/08 05:22:14;;;;;;;5.80;0.60;;;;;;;6.41;74.46;97978.34;8204448;28;20169;-72
2022/04/08 05:26:16;;;;;;;2.30;0.60;;;;;;;6.45;74.14;97977.44;8222460;28;20043;-73
2022/04/08 05:30:18;;;;;;;3.42;0.80;;;;;;;6.49;74.33;97973.13;8205377;28;20670;-73
2022/04/08 05:34:19;;;;;;;0.90;0.40;;;;;;;6.54;73.86;97958.44;8254170;28;20362;-73
2022/04/08 05:38:21;;;;;;;2.43;0.50;;;;;;;6.57;73.91;97954.09;8252168;28;20046;-73
2022/04/08 05:42:22;;;;;;;4.10;0.80;;;;;;;6.60;73.90;97958.34;8255361;28;20050;-73
2022/04/08 05:46:24;;;;;;;2.13;0.47;;;;;;;6.61;73.90;97957.50;8250849;28;20086;-73
2022/04/08 05:50:25;;;;;;;6.23;0.60;;;;;;;6.66;73.51;97958.31;8253511;28;20073;-73
2022/04/08 05:54:27;;;;;;;3.20;0.70;;;;;;;6.72;73.43;97947.06;8254973;28;20048;-73
2022/04/08 05:58:28;;;;;;;3.97;0.80;;;;;;;6.74;72.88;97940.16;8255044;28;20041;-72
2022/04/08 06:02:30;;;;;;;4.07;0.60;;;;;;;6.76;72.65;97940.97;8248680;28;20064;-73
2022/04/08 06:06:32;;;;;;;6.07;0.70;;;;;;;6.78;72.03;97940.09;8219986;28;20042;-73
2022/04/08 06:10:36;;;;;;;2.70;0.60;;;;;;;6.82;72.31;97933.16;8238211;28;21503;-72
2022/04/08 06:14:37;;;;;;;3.10;0.40;;;;;;;6.86;72.09;97927.09;8243562;28;20065;-73
2022/04/08 06:18:39;;;;;;;2.57;0.40;;;;;;;6.88;72.15;97928.78;8233207;28;20086;-73
2022/04/08 06:22:41;;;;;;;6.90;0.70;;;;;;;6.90;71.93;97921.03;8238515;28;20077;-73
2022/04/08 06:26:43;;;;;;;2.38;0.60;;;;;;;6.96;71.67;97915.75;8253582;28;20046;-73
2022/04/08 06:30:44;;;;;;;1.90;0.50;;;;;;;6.98;71.32;97925.19;8252897;28;20168;-74
2022/04/08 06:34:47;;;;;;;5.17;1.03;;;;;;;7.06;71.50;97913.94;8238709;28;20430;-74
2022/04/08 06:38:53;;;;;;;5.60;0.43;;;;;;;7.08;71.65;97901.84;8215547;28;20084;-73
2022/04/08 06:42:57;;;;;;;4.13;0.70;;;;;;;7.12;71.54;97898.34;8232468;28;20046;-73
2022/04/08 06:46:58;;;;;;;4.80;0.60;;;;;;;7.12;71.38;97888.88;8220970;28;20062;-73
2022/04/08 06:51:04;;;;;;;3.80;0.77;;;;;;;7.18;71.96;97877.59;8245173;28;20046;-73
2022/04/08 06:55:06;;;;;;;5.30;0.50;;;;;;;7.22;72.34;97874.13;8239961;28;20066;-73
2022/04/08 06:59:08;;;;;;;4.00;0.50;;;;;;;7.24;73.89;97865.47;8247193;28;20042;-73
2022/04/08 07:03:09;;;;;;;2.30;0.40;;;;;;;7.24;74.16;97857.72;8242200;28;20049;-72
2022/04/08 07:07:11;;;;;;;2.73;0.70;;;;;;;7.26;74.48;97852.53;8246361;28;20124;-72
2022/04/08 07:11:13;;;;;;;4.97;1.03;;;;;;;7.34;75.43;97852.38;8229261;28;20092;-73
2022/04/08 07:15:15;;;;;;;2.33;0.50;;;;;;;7.37;76.76;97834.28;8233546;28;20041;-73
2022/04/08 07:19:16;;;;;;;2.70;0.50;;;;;;;7.39;77.33;97840.28;8262562;28;20378;-73
2022/04/08 07:23:18;;;;;;;1.73;0.50;;;;;;;7.41;77.57;97833.34;8245118;28;20120;-72
2022/04/08 07:27:20;;;;;;;2.70;0.70;;;;;;;7.38;78.20;97829.09;8239315;28;20057;-72
2022/04/08 07:31:22;;;;;;;1.30;0.57;;;;;;;7.35;77.31;97838.59;8258981;28;20498;-72
2022/04/08 07:35:33;;;;;;;2.85;0.70;;;;;;;7.32;78.16;97828.34;8261228;28;20052;-72
2022/04/08 07:39:37;;;;;;;3.17;0.60;;;;;;;7.26;77.63;97824.13;8263162;28;20046;-72
2022/04/08 07:43:38;;;;;;;2.87;0.77;;;;;;;7.33;78.15;97819.72;8244108;28;20092;-72
2022/04/08 07:47:39;;;;;;;4.87;0.90;;;;;;;7.22;76.77;97818.16;8254912;28;20553;-72
2022/04/08 07:51:42;;;;;;;0.93;0.40;;;;;;;7.26;78.09;97817.25;8261530;28;20084;-73
2022/04/08 07:55:43;;;;;;;2.00;0.40;;;;;;;7.20;78.00;97812.19;8261998;28;20477;-73
2022/04/08 07:59:44;;;;;;;4.90;0.90;;;;;;;7.21;78.46;97807.88;8259309;28;20061;-72
2022/04/08 08:03:48;;;;;;;2.23;0.40;;;;;;;7.18;78.50;97795.88;8241934;28;20084;-73
2022/04/08 08:07:52;;;;;;;1.20;0.67;;;;;;;7.12;78.39;97787.38;8263950;28;20044;-72
2022/04/08 08:11:53;;;;;;;0.57;0.40;;;;;;;7.08;79.07;97791.72;8228437;28;20149;-72
2022/04/08 08:15:54;;;;;;;1.43;0.40;;;;;;;7.08;79.83;97788.28;8241712;28;20069;-72
2022/04/08 08:19:57;;;;;;;0.82;0.20;;;;;;;7.08;81.15;97776.25;8261787;28;20057;-70
2022/04/08 08:23:58;;;;;;;2.57;0.40;;;;;;;7.05;81.01;97783.19;8244707;28;20358;-70
2022/04/08 08:28:01;;;;;;;2.33;0.37;;;;;;;6.89;80.68;97780.84;8259678;28;20659;-70
2022/04/08 08:32:04;;;;;;;4.10;0.33;;;;;;;6.86;81.79;97774.91;8238176;28;20068;-71
2022/04/08 08:36:06;;;;;;;;;;;;;;;6.84;81.75;97767.19;8254606;28;20395;-69
2022/04/08 08:40:09;;;;;;;0.90;0.20;;;;;;;6.83;82.03;97762.06;8250403;28;20500;-69
2022/04/08 08:44:10;;;;;;;1.03;0.63;;;;;;;6.85;82.47;97755.97;8251917;28;20652;-69
2022/04/08 08:48:13;;;;;;;1.03;0.30;;;;;;;6.83;82.59;97755.16;8247498;28;20453;-69
2022/04/08 08:52:14;;;;;;;1.20;0.28;;;;;;;6.77;82.41;97755.25;8254177;28;20048;-69
2022/04/08 08:56:16;;;;;;;0.73;0.33;;;;;;;6.80;82.62;97744.00;8227109;28;20080;-69
2022/04/08 09:00:20;;;;;;;1.90;0.60;;;;;;;6.84;83.59;97740.53;8246826;28;20172;-69
2022/04/08 09:04:22;;;;;;;0.20;0.20;;;;;;;6.84;83.80;97731.06;8250790;28;20390;-69
2022/04/08 09:08:32;;;;;;;0.93;0.20;;;;;;;6.86;82.51;97725.88;8257274;28;20842;-69
2022/04/08 09:12:34;;;;;;;0.50;0.20;;;;;;;6.85;82.65;97722.44;8246476;28;20137;-69
2022/04/08 09:16:39;;;;;;;0.30;0.20;;;;;;;6.77;81.87;97719.13;8250323;28;20186;-69
2022/04/08 09:20:45;;;;;;;0.50;0.20;;;;;;;6.69;82.64;97713.25;8233593;28;20136;-69
2022/04/08 09:24:48;;;;;;;0.70;0.20;;;;;;;6.60;83.15;97711.66;8256482;28;20516;-71
2022/04/08 09:28:52;;;;;;;;;;;;;;;6.47;83.77;97704.16;8257347;28;20129;-70
2022/04/08 09:32:54;;;;;;;1.13;0.10;;;;;;;6.39;83.70;97687.94;8254447;28;20008;-69
2022/04/08 09:36:57;;;;;;;0.30;0.20;;;;;;;6.24;82.92;97676.97;8224234;28;20324;-69
2022/04/08 09:41:01;;;;;;;1.13;0.30;;;;;;;6.31;82.71;97664.88;8257651;28;20077;-71
2022/04/08 09:45:03;;;;;;;0.63;0.63;;;;;;;6.34;82.80;97663.09;8256142;28;20133;-70
2022/04/08 09:49:05;;;;;;;0.17;0.17;;;;;;;6.44;82.58;97650.88;8260741;28;20458;-70
2022/04/08 09:53:07;;;;;;;0.28;0.20;;;;;;;6.45;82.85;97650.00;8256731;28;20073;-71
2022/04/08 09:57:17;;;;;;;0.40;0.20;;;;;;;6.49;82.27;97628.50;8239056;28;20474;-70
2022/04/08 10:01:20;;;;;;;0.20;0.13;;;;;;;6.59;82.50;97626.59;8254254;28;20081;-70
2022/04/08 10:05:22;;;;;;;0.20;0.20;;;;;;;6.65;82.73;97606.72;8239680;28;20033;-69
2022/04/08 10:09:31;;;;;;;1.08;0.20;;;;;;;6.71;82.89;97603.19;8256018;28;20073;-69
2022/04/08 10:13:50;;;;;;;0.13;0.10;;;;;;;6.79;83.34;97601.28;8254984;28;20049;-70
2022/04/08 10:17:56;;;;;;;0.30;0.17;;;;;;;6.83;83.89;97592.66;8236925;28;20085;-70
2022/04/08 10:22:00;;;;;;;1.20;0.43;;;;;;;6.91;84.47;97580.44;8257553;28;20048;-70
2022/04/08 10:26:02;;;;;;;29.27;10.73;;;;;;;6.90;84.21;97585.63;8258293;28;20775;-70
2022/04/08 10:30:42;;;;;;;11.60;3.93;;;;;;;6.83;84.17;97569.44;8234497;28;20055;-70
2022/04/08 10:34:44;;;;;;;2.03;1.00;;;;;;;6.66;82.76;97558.56;8229784;28;20064;-70
2022/04/08 10:38:46;;;;;;;0.93;0.60;;;;;;;6.56;82.94;97551.88;8256765;28;20073;-70
2022/04/08 10:43:06;;;;;;;0.60;0.60;;;;;;;6.52;83.25;97540.78;8261882;28;20042;-70
2022/04/08 10:47:16;;;;;;;0.67;0.50;;;;;;;6.57;84.39;97531.22;8258391;28;20120;-70
2022/04/08 10:51:18;;;;;;;0.57;0.50;;;;;;;6.58;84.64;97524.34;8266557;28;20427;-70
2022/04/08 10:55:20;;;;;;;0.40;0.40;;;;;;;6.47;83.78;97518.53;8239241;28;20137;-70
2022/04/08 10:59:27;;;;;;;0.63;0.30;;;;;;;6.49;84.31;97517.63;8261446;28;20045;-70
2022/04/08 11:03:29;;;;;;;0.47;0.23;;;;;;;6.45;84.11;97503.06;8251372;28;20454;-70
2022/04/08 11:07:32;;;;;;;0.50;0.40;;;;;;;6.43;84.38;97485.94;8262773;28;20133;-70
2022/04/08 11:11:38;;;;;;;0.90;0.32;;;;;;;6.44;84.59;97482.47;8263217;28;20092;-70
2022/04/08 11:15:43;;;;;;;0.30;0.23;;;;;;;6.43;84.55;97484.22;8249170;28;20070;-70
2022/04/08 11:19:49;;;;;;;0.83;0.20;;;;;;;6.41;84.61;97487.69;8236468;28;20049;-69
2022/04/08 11:24:07;;;;;;;0.20;0.10;;;;;;;6.35;84.94;97483.50;8243094;28;20557;-70
2022/04/08 11:28:10;;;;;;;0.37;0.30;;;;;;;6.34;84.71;97458.63;8247192;28;20046;-69
2022/04/08 11:32:11;;;;;;;0.22;0.20;;;;;;;6.25;83.38;97456.19;8249106;28;20047;-70
2022/04/08 11:36:20;;;;;;;0.25;0.25;;;;;;;6.26;84.03;97450.16;8243878;28;20050;-69
2022/04/08 11:40:22;;;;;;;0.20;0.20;;;;;;;6.29;84.44;97432.94;8259591;28;20121;-69
2022/04/08 11:44:24;;;;;;;0.40;0.20;;;;;;;6.30;84.88;97433.78;8261108;28;20130;-69
2022/04/08 11:48:26;;;;;;;;;;;;;;;6.27;84.65;97413.22;8245512;28;20046;-69
2022/04/08 11:52:31;;;;;;;2.17;0.30;;;;;;;6.17;83.74;97404.81;8250593;28;19926;-69
2022/04/08 11:56:33;;;;;;;2.67;1.00;;;;;;;6.11;83.51;97397.22;8252180;28;20048;-69
2022/04/08 12:00:34;;;;;;;0.88;0.57;;;;;;;5.95;83.44;97383.78;8253731;28;20057;-69
2022/04/08 12:04:40;;;;;;;4.00;1.10;;;;;;;5.81;83.70;97375.41;8261492;28;20077;-72
2022/04/08 12:08:41;;;;;;;2.70;0.90;;;;;;;5.70;84.37;97370.44;8259850;28;20050;-71
2022/04/08 12:12:44;;;;;;;2.70;0.70;;;;;;;5.63;84.57;97362.84;8233338;28;20065;-71
2022/04/08 12:16:48;;;;;;;5.70;2.00;;;;;;;5.55;85.00;97341.53;8248275;28;20619;-70
2022/04/08 12:20:56;;;;;;;1.60;1.13;;;;;;;5.46;84.87;97356.28;8261391;28;20444;-70
2022/04/08 12:25:00;;;;;;;0.93;0.60;;;;;;;5.39;85.22;97367.56;8241706;28;20050;-71
2022/04/08 12:29:09;;;;;;;1.10;0.70;;;;;;;5.39;85.70;97340.97;8269579;28;20050;-70
2022/04/08 12:33:11;;;;;;;0.83;0.50;;;;;;;5.24;84.58;97390.94;8254792;28;20085;-72
2022/04/08 12:37:12;;;;;;;1.43;0.60;;;;;;;5.24;85.26;97367.78;8254062;28;20080;-71
2022/04/08 12:41:13;;;;;;;4.13;1.70;;;;;;;5.19;86.00;97355.84;8250489;28;20153;-70
2022/04/08 12:45:16;;;;;;;0.43;0.43;;;;;;;5.10;85.72;97354.28;8249647;28;20642;-70
2022/04/08 12:49:17;;;;;;;0.90;0.50;;;;;;;5.11;86.33;97350.84;8259222;28;20050;-70
2022/04/08 12:53:20;;;;;;;0.57;0.40;;;;;;;5.11;86.69;97338.84;8255503;28;20080;-72
2022/04/08 12:57:21;;;;;;;0.30;0.30;;;;;;;5.10;86.70;97339.72;8254309;28;20897;-70
2022/04/08 13:01:43;;;;;;;3.03;0.50;;;;;;;5.12;86.81;97324.25;8258535;28;20111;-70
2022/04/08 13:05:45;;;;;;;;;;;;;;;5.08;86.72;97322.59;8266304;28;20043;-72
2022/04/08 13:09:46;;;;;;;0.20;0.20;;;;;;;5.12;87.14;97301.94;8263903;28;20028;-71
2022/04/08 13:13:48;;;;;;;0.90;0.60;;;;;;;5.15;88.07;97283.88;8265284;28;20560;-71
2022/04/08 13:17:50;;;;;;;0.40;0.30;;;;;;;5.19;88.01;97288.97;8262560;28;20065;-70
2022/04/08 13:21:51;;;;;;;0.40;0.40;;;;;;;5.16;88.01;97280.44;8246730;28;20049;-70
2022/04/08 13:25:53;;;;;;;0.30;0.30;;;;;;;5.12;87.63;97304.53;8229933;28;20030;-71
2022/04/08 13:29:54;;;;;;;0.33;0.33;;;;;;;5.03;87.53;97296.13;8248148;28;20107;-72
2022/04/08 13:33:56;;;;;;;0.43;0.43;;;;;;;4.91;86.92;97284.31;8258895;28;20575;-71
2022/04/08 13:37:57;;;;;;;0.33;0.33;;;;;;;4.88;87.54;97283.50;8257744;28;20100;-72
2022/04/08 13:41:59;;;;;;;1.27;0.50;;;;;;;4.90;88.19;97267.19;8251654;28;20137;-72
2022/04/08 13:46:00;;;;;;;0.43;0.40;;;;;;;4.95;88.50;97239.66;8248897;28;20064;-71
2022/04/08 13:50:03;;;;;;;0.70;0.70;;;;;;;4.92;89.14;97216.56;8255922;28;20312;-71
2022/04/08 13:54:05;;;;;;;1.10;0.75;;;;;;;4.88;88.61;97232.09;8248458;28;20065;-72
2022/04/08 13:58:07;;;;;;;0.75;0.50;;;;;;;4.90;88.61;97231.19;8251425;28;20073;-72
2022/04/08 14:02:12;;;;;;;1.50;0.67;;;;;;;4.91;88.84;97255.16;8234662;28;20085;-71
2022/04/08 14:06:14;;;;;;;0.70;0.53;;;;;;;4.93;89.23;97225.97;8252604;28;20144;-71
2022/04/08 14:10:15;;;;;;;0.77;0.30;;;;;;;4.95;88.98;97257.66;8226673;28;20057;-71
2022/04/08 14:14:17;;;;;;;0.40;0.40;;;;;;;5.05;89.35;97243.78;8259035;28;20091;-72
2022/04/08 14:18:18;;;;;;;0.93;0.50;;;;;;;5.13;89.14;97246.22;8254058;28;20089;-71
2022/04/08 14:22:20;;;;;;;0.70;0.70;;;;;;;5.20;88.72;97228.94;8259684;28;20506;-72
2022/04/08 14:26:22;;;;;;;0.55;0.40;;;;;;;5.13;89.33;97267.63;8244000;28;20125;-71
2022/04/08 14:30:24;;;;;;;0.57;0.57;;;;;;;5.09;89.53;97266.00;8254053;28;20180;-71
2022/04/08 14:34:26;;;;;;;0.45;0.45;;;;;;;5.06;89.41;97285.78;8259121;28;20136;-71
2022/04/08 14:38:28;;;;;;;0.30;0.30;;;;;;;5.07;89.35;97272.88;8224465;28;20138;-71
2022/04/08 14:42:30;;;;;;;1.58;0.80;;;;;;;5.09;89.27;97260.84;8257076;28;20046;-70
2022/04/08 14:46:31;;;;;;;0.93;0.80;;;;;;;5.16;89.69;97256.44;8219458;28;20165;-70
2022/04/08 14:50:33;;;;;;;1.70;1.10;;;;;;;5.22;90.15;97264.06;8241576;28;21383;-71
2022/04/08 14:54:35;;;;;;;5.87;2.87;;;;;;;5.28;90.21;97257.97;8243633;28;20073;-72
2022/04/08 14:58:37;;;;;;;2.38;1.70;;;;;;;5.34;90.31;97257.84;8250815;28;20041;-72
2022/04/08 15:02:38;;;;;;;2.50;1.60;;;;;;;5.36;90.10;97272.38;8249685;28;20058;-72
2022/04/08 15:06:40;;;;;;;1.42;1.13;;;;;;;5.34;90.23;97276.69;8253762;28;20043;-72
2022/04/08 15:10:42;;;;;;;1.10;0.70;;;;;;;5.25;89.51;97268.31;8256001;28;20327;-69
2022/04/08 15:14:43;;;;;;;3.85;2.40;;;;;;;5.25;89.66;97166.25;8235382;28;20851;-71
2022/04/08 15:18:45;;;;;;;0.93;0.87;;;;;;;5.41;90.21;97203.69;8250540;28;20474;-71
2022/04/08 15:22:46;;;;;;;3.83;2.40;;;;;;;5.50;89.99;97212.94;8256745;28;20049;-72
2022/04/08 15:26:48;;;;;;;1.47;1.00;;;;;;;5.68;89.80;97209.16;8253661;28;20042;-71
2022/04/08 15:30:50;;;;;;;1.90;1.00;;;;;;;5.76;89.35;97226.16;8249290;28;20459;-72
2022/04/08 15:34:52;;;;;;;1.73;1.10;;;;;;;5.82;89.15;97224.31;8253774;28;20049;-71
2022/04/08 15:38:54;;;;;;;1.75;1.13;;;;;;;5.94;89.04;97221.53;8260839;28;20129;-71
2022/04/08 15:42:57;;;;;;;0.90;0.90;;;;;;;6.01;88.84;97238.53;8260356;28;20443;-71
2022/04/08 15:46:58;;;;;;;0.50;0.40;;;;;;;5.98;88.48;97220.59;8256889;28;20062;-71
2022/04/08 15:51:00;;;;;;;0.47;0.47;;;;;;;5.94;88.57;97213.81;8255155;28;20378;-71
2022/04/08 15:55:01;;;;;;;0.70;0.57;;;;;;;5.88;88.41;97222.44;8237146;28;20042;-71
2022/04/08 15:59:03;;;;;;;0.50;0.50;;;;;;;5.84;88.53;97236.28;8256522;28;20046;-70
2022/04/08 16:03:05;;;;;;;0.60;0.60;;;;;;;5.75;88.46;97245.06;8254453;28;20054;-70
2022/04/08 16:07:06;;;;;;;0.98;0.60;;;;;;;5.63;88.63;97280.47;8239234;28;20038;-71
2022/04/08 16:11:08;;;;;;;3.07;0.70;;;;;;;5.55;88.72;97303.78;8257761;28;20596;-72
2022/04/08 16:15:09;;;;;;;1.60;0.80;;;;;;;5.53;88.90;97304.69;8256547;28;20072;-72
2022/04/08 16:19:11;;;;;;;0.57;0.57;;;;;;;5.52;89.27;97308.13;8258029;28;20046;-70
2022/04/08 16:23:12;;;;;;;3.03;1.10;;;;;;;5.51;89.84;97293.56;8242058;28;20153;-71
2022/04/08 16:27:14;;;;;;;4.10;2.53;;;;;;;5.47;89.86;97267.88;8251772;28;20124;-72
2022/04/08 16:31:15;;;;;;;6.10;3.60;;;;;;;5.46;89.97;97257.63;8231293;28;20169;-71
2022/04/08 16:35:17;;;;;;;8.43;4.43;;;;;;;5.40;89.90;97257.75;8233555;28;20993;-70
2022/04/08 16:39:18;;;;;;;6.83;3.83;;;;;;;5.36;89.94;97258.66;8250996;28;20699;-70
2022/04/08 16:43:20;;;;;;;3.30;1.87;;;;;;;5.29;90.19;97249.38;8233789;28;20046;-72
2022/04/08 16:47:23;;;;;;;2.20;1.50;;;;;;;5.24;90.16;97228.03;8245483;28;20686;-72
2022/04/08 16:51:25;;;;;;;1.77;1.23;;;;;;;5.21;90.23;97230.66;8232255;28;20038;-71
2022/04/08 16:55:31;;;;;;;1.20;1.10;;;;;;;5.16;90.09;97243.56;8254353;28;20042;-69
2022/04/08 16:59:34;;;;;;;1.05;0.80;;;;;;;5.17;90.40;97245.28;8233870;28;20181;-70
2022/04/08 17:03:35;;;;;;;1.00;0.90;;;;;;;5.19;90.44;97233.22;8223383;28;20157;-70
2022/04/08 17:07:37;;;;;;;1.00;0.90;;;;;;;5.16;90.54;97228.16;8226013;28;20047;-71
2022/04/08 17:11:43;;;;;;;0.90;0.90;;;;;;;5.15;90.60;97221.31;8240248;28;20064;-71
2022/04/08 17:15:45;;;;;;;0.80;0.80;;;;;;;5.14;90.51;97214.47;8238042;28;20141;-71
2022/04/08 17:19:46;;;;;;;0.98;0.98;;;;;;;5.05;90.62;97245.50;8225966;28;20058;-71
2022/04/08 17:23:52;;;;;;;0.90;0.90;;;;;;;4.98;91.20;97208.75;8237765;28;20425;-71
2022/04/08 17:27:54;;;;;;;0.87;0.87;;;;;;;4.91;91.15;97244.88;8245041;28;20069;-70
2022/04/08 17:31:57;;;;;;;0.83;0.80;;;;;;;4.82;91.50;97246.72;8241627;28;20055;-68
2022/04/08 17:35:58;;;;;;;1.30;0.80;;;;;;;4.83;91.74;97227.84;8245746;28;20455;-70
2022/04/08 17:40:03;;;;;;;2.10;0.83;;;;;;;4.82;92.02;97207.31;8231628;28;20438;-69
2022/04/08 17:44:05;;;;;;;0.70;0.70;;;;;;;4.80;92.06;97196.19;8243528;28;20146;-68
2022/04/08 17:48:06;;;;;;;0.68;0.60;;;;;;;4.77;91.92;97191.13;8255396;28;20050;-68
2022/04/08 17:52:08;;;;;;;0.60;0.60;;;;;;;4.73;91.71;97198.03;8258674;28;20158;-68
2022/04/08 17:56:09;;;;;;;1.23;1.13;;;;;;;4.71;91.52;97204.94;8257946;28;20042;-69
2022/04/08 18:00:11;;;;;;;1.27;1.13;;;;;;;4.69;91.93;97203.25;8257793;28;20580;-72
2022/04/08 18:04:13;;;;;;;1.10;0.80;;;;;;;4.70;91.63;97180.09;8259859;28;20045;-72
2022/04/08 18:08:14;;;;;;;0.93;0.90;;;;;;;4.65;91.78;97184.44;8258056;28;20034;-73
2022/04/08 18:12:16;;;;;;;1.83;1.00;;;;;;;4.52;91.25;97175.25;8258650;28;20100;-73
2022/04/08 18:16:17;;;;;;;1.10;1.00;;;;;;;4.43;91.06;97150.56;8255388;28;20323;-73
2022/04/08 18:20:19;;;;;;;2.60;1.07;;;;;;;4.40;91.24;97134.34;8259555;28;20137;-72
2022/04/08 18:24:20;;;;;;;3.10;1.17;;;;;;;4.31;90.97;97148.19;8259130;28;20092;-72
2022/04/08 18:28:22;;;;;;;1.20;0.63;;;;;;;4.18;90.84;97142.41;8259550;28;20715;-72
2022/04/08 18:32:24;;;;;;;0.70;0.70;;;;;;;4.13;90.91;97146.75;8254856;28;20082;-72
2022/04/08 18:36:26;;;;;;;1.43;0.70;;;;;;;4.09;91.13;97147.66;8236393;28;20049;-73
2022/04/08 18:40:29;;;;;;;0.87;0.80;;;;;;;4.02;90.83;97152.91;8233951;28;20073;-73
2022/04/08 18:44:32;;;;;;;1.07;0.77;;;;;;;3.88;90.57;97151.38;8248733;28;20042;-74
2022/04/08 18:48:36;;;;;;;0.50;0.50;;;;;;;3.83;90.86;97149.75;8252590;28;20518;-71
2022/04/08 18:52:37;;;;;;;0.93;0.50;;;;;;;3.75;90.53;97152.41;8233072;28;20046;-73
2022/04/08 18:56:40;;;;;;;2.23;0.70;;;;;;;3.70;90.60;97168.75;8260358;28;20100;-73
2022/04/08 19:00:42;;;;;;;0.57;0.57;;;;;;;3.63;90.48;97180.81;8250927;28;20049;-72
2022/04/08 19:04:44;;;;;;;0.38;0.38;;;;;;;3.58;90.12;97206.53;8241640;28;20140;-70
2022/04/08 19:08:45;;;;;;;0.30;0.30;;;;;;;3.54;90.04;97204.88;8249177;28;20913;-71
2022/04/08 19:12:47;;;;;;;1.20;0.30;;;;;;;3.49;89.48;97208.34;8252645;28;20060;-71
2022/04/08 19:16:51;;;;;;;0.27;0.27;;;;;;;3.28;88.67;97212.03;8252126;28;20053;-73
2022/04/08 19:20:54;;;;;;;0.53;0.40;;;;;;;3.13;88.54;97222.44;8253980;28;20049;-73
2022/04/08 19:24:55;;;;;;;0.20;0.20;;;;;;;3.00;88.27;97231.94;8228789;28;20524;-71
2022/04/08 19:28:59;;;;;;;0.53;0.20;;;;;;;2.83;88.01;97247.47;8249977;28;20070;-73
2022/04/08 19:33:00;;;;;;;0.20;0.20;;;;;;;2.63;87.92;97259.59;8234583;28;20046;-75
2022/04/08 19:37:05;;;;;;;0.27;0.20;;;;;;;2.54;88.05;97257.13;8258779;28;20144;-74
2022/04/08 19:41:06;;;;;;;0.27;0.27;;;;;;;2.49;87.88;97263.97;8255436;28;20097;-74